sensor_id;sensor_type;location;lat;lon;timestamp;temperature;humidity
31311;DHT22;17937;51.508;7.534;2022-10-29T00:02:07;17.40;99.90
31311;DHT22;17937;51.508;7.534;2022-10-29T00:04:32;17.40;99.90
31311;DHT22;17937;51.508;7.534;2022-10-29T00:06:58;17.40;99.90
31311;DHT22;17937;51.508;7.534;2022-10-29T00:09:23;17.30;99.90
31311;DHT22;17937;51.508;7.534;2022-10-29T00:11:49;17.40;99.90
31311;DHT22;17937;51.508;7.534;2022-10-29T00:14:15;17.30;99.90
31311;DHT22;17937;51.508;7.534;2022-10-29T00:16:40;17.40;99.90
31311;DHT22;17937;51.508;7.534;2022-10-29T00:19:06;17.40;99.90
31311;DHT22;17937;51.508;7.534;2022-10-29T00:21:32;17.40;99.90
31311;DHT22;17937;51.508;7.534;2022-10-29T00:23:58;17.40;99.90
31311;DHT22;17937;51.508;7.534;2022-10-29T00:26:26;17.40;99.90
31311;DHT22;17937;51.508;7.534;2022-10-29T00:28:54;17.40;99.90
31311;DHT22;17937;51.508;7.534;2022-10-29T00:31:21;17.40;99.90
31311;DHT22;17937;51.508;7.534;2022-10-29T00:33:52;17.40;99.90
31311;DHT22;17937;51.508;7.534;2022-10-29T00:36:20;17.30;99.90
31311;DHT22;17937;51.508;7.534;2022-10-29T00:38:49;17.30;99.90
31311;DHT22;17937;51.508;7.534;2022-10-29T00:41:17;17.30;99.90
31311;DHT22;17937;51.508;7.534;2022-10-29T00:44:26;17.30;99.90
31311;DHT22;17937;51.508;7.534;2022-10-29T00:46:35;17.30;99.90
31311;DHT22;17937;51.508;7.534;2022-10-29T00:49:01;17.30;99.90
31311;DHT22;17937;51.508;7.534;2022-10-29T00:51:29;17.20;99.90
31311;DHT22;17937;51.508;7.534;2022-10-29T00:53:59;17.30;99.90
31311;DHT22;17937;51.508;7.534;2022-10-29T00:56:28;17.30;99.90
31311;DHT22;17937;51.508;7.534;2022-10-29T00:58:56;17.30;99.90
31311;DHT22;17937;51.508;7.534;2022-10-29T01:01:22;17.30;99.90
31311;DHT22;17937;51.508;7.534;2022-10-29T01:03:47;17.20;99.90
31311;DHT22;17937;51.508;7.534;2022-10-29T01:06:13;17.20;99.90
31311;DHT22;17937;51.508;7.534;2022-10-29T01:08:39;17.20;99.90
31311;DHT22;17937;51.508;7.534;2022-10-29T01:14:08;17.20;99.90
31311;DHT22;17937;51.508;7.534;2022-10-29T01:22:26;17.20;99.90
31311;DHT22;17937;51.508;7.534;2022-10-29T01:28:04;17.10;99.90
31311;DHT22;17937;51.508;7.534;2022-10-29T01:30:48;17.10;99.90
31311;DHT22;17937;51.508;7.534;2022-10-29T01:38:46;16.90;99.90
31311;DHT22;17937;51.508;7.534;2022-10-29T01:46:36;16.90;99.90
31311;DHT22;17937;51.508;7.534;2022-10-29T01:49:06;16.90;99.90
31311;DHT22;17937;51.508;7.534;2022-10-29T01:51:35;16.80;99.90
31311;DHT22;17937;51.508;7.534;2022-10-29T01:54:07;16.80;99.90
31311;DHT22;17937;51.508;7.534;2022-10-29T01:56:33;16.70;99.90
31311;DHT22;17937;51.508;7.534;2022-10-29T01:59:02;16.70;99.90
31311;DHT22;17937;51.508;7.534;2022-10-29T02:04:49;16.50;99.90
31311;DHT22;17937;51.508;7.534;2022-10-29T02:10:27;16.50;99.90
31311;DHT22;17937;51.508;7.534;2022-10-29T02:12:57;16.60;99.90
31311;DHT22;17937;51.508;7.534;2022-10-29T02:15:47;16.60;99.90
31311;DHT22;17937;51.508;7.534;2022-10-29T02:18:14;16.60;99.90
31311;DHT22;17937;51.508;7.534;2022-10-29T02:20:41;16.60;99.90
31311;DHT22;17937;51.508;7.534;2022-10-29T02:23:07;16.60;99.90
31311;DHT22;17937;51.508;7.534;2022-10-29T02:25:32;16.60;99.90
31311;DHT22;17937;51.508;7.534;2022-10-29T02:27:58;16.40;99.90
31311;DHT22;17937;51.508;7.534;2022-10-29T02:30:23;16.40;99.90
31311;DHT22;17937;51.508;7.534;2022-10-29T02:32:49;16.30;99.90
31311;DHT22;17937;51.508;7.534;2022-10-29T02:35:15;16.20;99.90
31311;DHT22;17937;51.508;7.534;2022-10-29T02:37:40;16.20;99.90
31311;DHT22;17937;51.508;7.534;2022-10-29T02:40:06;16.10;99.90
31311;DHT22;17937;51.508;7.534;2022-10-29T02:42:32;16.10;99.90
31311;DHT22;17937;51.508;7.534;2022-10-29T02:44:58;16.00;99.90
31311;DHT22;17937;51.508;7.534;2022-10-29T02:47:23;16.00;99.90
31311;DHT22;17937;51.508;7.534;2022-10-29T02:49:49;16.00;99.90
31311;DHT22;17937;51.508;7.534;2022-10-29T02:52:14;16.10;99.90
31311;DHT22;17937;51.508;7.534;2022-10-29T02:54:40;16.20;99.90
31311;DHT22;17937;51.508;7.534;2022-10-29T02:57:07;16.30;99.90
31311;DHT22;17937;51.508;7.534;2022-10-29T02:59:32;16.30;99.90
31311;DHT22;17937;51.508;7.534;2022-10-29T03:01:58;16.30;99.90
31311;DHT22;17937;51.508;7.534;2022-10-29T03:04:23;16.40;99.90
31311;DHT22;17937;51.508;7.534;2022-10-29T03:06:49;16.40;99.90
31311;DHT22;17937;51.508;7.534;2022-10-29T03:09:14;16.30;99.90
31311;DHT22;17937;51.508;7.534;2022-10-29T03:11:40;16.10;99.90
31311;DHT22;17937;51.508;7.534;2022-10-29T03:14:06;16.10;99.90
31311;DHT22;17937;51.508;7.534;2022-10-29T03:16:31;16.00;99.90
31311;DHT22;17937;51.508;7.534;2022-10-29T03:18:57;16.00;99.90
31311;DHT22;17937;51.508;7.534;2022-10-29T03:21:22;16.00;99.90
31311;DHT22;17937;51.508;7.534;2022-10-29T03:23:48;16.00;99.90
31311;DHT22;17937;51.508;7.534;2022-10-29T03:26:13;16.00;99.90
31311;DHT22;17937;51.508;7.534;2022-10-29T03:28:39;16.10;99.90
31311;DHT22;17937;51.508;7.534;2022-10-29T03:31:04;16.00;99.90
31311;DHT22;17937;51.508;7.534;2022-10-29T03:33:30;16.00;99.90
31311;DHT22;17937;51.508;7.534;2022-10-29T03:36:03;16.10;99.90
31311;DHT22;17937;51.508;7.534;2022-10-29T03:38:33;16.10;99.90
31311;DHT22;17937;51.508;7.534;2022-10-29T03:40:59;16.10;99.90
31311;DHT22;17937;51.508;7.534;2022-10-29T03:43:25;16.10;99.90
31311;DHT22;17937;51.508;7.534;2022-10-29T03:48:16;16.10;99.90
31311;DHT22;17937;51.508;7.534;2022-10-29T03:50:42;16.10;99.90
31311;DHT22;17937;51.508;7.534;2022-10-29T03:53:08;16.00;99.90
31311;DHT22;17937;51.508;7.534;2022-10-29T03:55:33;15.90;99.90
31311;DHT22;17937;51.508;7.534;2022-10-29T03:57:59;16.00;99.90
31311;DHT22;17937;51.508;7.534;2022-10-29T04:00:24;16.00;99.90
31311;DHT22;17937;51.508;7.534;2022-10-29T04:02:50;16.00;99.90
31311;DHT22;17937;51.508;7.534;2022-10-29T04:05:16;16.00;99.90
31311;DHT22;17937;51.508;7.534;2022-10-29T04:07:41;15.90;99.90
31311;DHT22;17937;51.508;7.534;2022-10-29T04:10:07;16.00;99.90
31311;DHT22;17937;51.508;7.534;2022-10-29T04:12:32;15.90;99.90
31311;DHT22;17937;51.508;7.534;2022-10-29T04:14:58;15.90;99.90
31311;DHT22;17937;51.508;7.534;2022-10-29T04:17:24;15.90;99.90
31311;DHT22;17937;51.508;7.534;2022-10-29T04:19:49;16.00;99.90
31311;DHT22;17937;51.508;7.534;2022-10-29T04:22:15;16.00;99.90
31311;DHT22;17937;51.508;7.534;2022-10-29T04:24:40;16.00;99.90
31311;DHT22;17937;51.508;7.534;2022-10-29T04:27:06;16.00;99.90
31311;DHT22;17937;51.508;7.534;2022-10-29T04:29:31;16.00;99.90
31311;DHT22;17937;51.508;7.534;2022-10-29T04:31:57;16.00;99.90
31311;DHT22;17937;51.508;7.534;2022-10-29T04:34:22;15.90;99.90
31311;DHT22;17937;51.508;7.534;2022-10-29T04:36:48;15.90;99.90
31311;DHT22;17937;51.508;7.534;2022-10-29T04:39:15;15.90;99.90
31311;DHT22;17937;51.508;7.534;2022-10-29T04:41:41;15.90;99.90
31311;DHT22;17937;51.508;7.534;2022-10-29T04:44:07;15.90;99.90
31311;DHT22;17937;51.508;7.534;2022-10-29T04:46:33;15.90;99.90
31311;DHT22;17937;51.508;7.534;2022-10-29T04:48:58;15.90;99.90
31311;DHT22;17937;51.508;7.534;2022-10-29T04:51:25;15.90;99.90
31311;DHT22;17937;51.508;7.534;2022-10-29T04:53:50;15.90;99.90
31311;DHT22;17937;51.508;7.534;2022-10-29T04:56:16;15.90;99.90
31311;DHT22;17937;51.508;7.534;2022-10-29T04:58:42;15.90;99.90
31311;DHT22;17937;51.508;7.534;2022-10-29T05:01:07;15.90;99.90
31311;DHT22;17937;51.508;7.534;2022-10-29T05:03:33;15.90;99.90
31311;DHT22;17937;51.508;7.534;2022-10-29T05:06:02;15.90;99.90
31311;DHT22;17937;51.508;7.534;2022-10-29T05:08:28;15.90;99.90
31311;DHT22;17937;51.508;7.534;2022-10-29T05:10:54;15.90;99.90
31311;DHT22;17937;51.508;7.534;2022-10-29T05:13:19;15.90;99.90
31311;DHT22;17937;51.508;7.534;2022-10-29T05:15:49;16.00;99.90
31311;DHT22;17937;51.508;7.534;2022-10-29T05:18:15;16.00;99.90
31311;DHT22;17937;51.508;7.534;2022-10-29T05:20:41;16.00;99.90
31311;DHT22;17937;51.508;7.534;2022-10-29T05:23:08;16.00;99.90
31311;DHT22;17937;51.508;7.534;2022-10-29T05:25:36;16.00;99.90
31311;DHT22;17937;51.508;7.534;2022-10-29T05:28:08;15.90;99.90
31311;DHT22;17937;51.508;7.534;2022-10-29T05:30:35;15.90;99.90
31311;DHT22;17937;51.508;7.534;2022-10-29T05:33:08;15.80;99.90
31311;DHT22;17937;51.508;7.534;2022-10-29T05:35:34;15.80;99.90
31311;DHT22;17937;51.508;7.534;2022-10-29T05:38:00;15.80;99.90
31311;DHT22;17937;51.508;7.534;2022-10-29T05:40:26;15.90;99.90
31311;DHT22;17937;51.508;7.534;2022-10-29T05:42:52;15.90;99.90
31311;DHT22;17937;51.508;7.534;2022-10-29T05:45:18;15.90;99.90
31311;DHT22;17937;51.508;7.534;2022-10-29T05:47:43;15.90;99.90
31311;DHT22;17937;51.508;7.534;2022-10-29T05:50:10;15.90;99.90
31311;DHT22;17937;51.508;7.534;2022-10-29T05:52:36;15.90;99.90
31311;DHT22;17937;51.508;7.534;2022-10-29T05:55:02;16.00;99.90
31311;DHT22;17937;51.508;7.534;2022-10-29T05:57:28;16.00;99.90
31311;DHT22;17937;51.508;7.534;2022-10-29T05:59:54;16.00;99.90
31311;DHT22;17937;51.508;7.534;2022-10-29T06:02:19;16.00;99.90
31311;DHT22;17937;51.508;7.534;2022-10-29T06:04:45;16.00;99.90
31311;DHT22;17937;51.508;7.534;2022-10-29T06:07:10;16.00;99.90
31311;DHT22;17937;51.508;7.534;2022-10-29T06:09:36;16.00;99.90
31311;DHT22;17937;51.508;7.534;2022-10-29T06:12:02;15.90;99.90
31311;DHT22;17937;51.508;7.534;2022-10-29T06:14:28;15.90;99.90
31311;DHT22;17937;51.508;7.534;2022-10-29T06:16:53;15.80;99.90
31311;DHT22;17937;51.508;7.534;2022-10-29T06:19:19;15.90;99.90
31311;DHT22;17937;51.508;7.534;2022-10-29T06:21:44;15.90;99.90
31311;DHT22;17937;51.508;7.534;2022-10-29T06:24:10;15.90;99.90
31311;DHT22;17937;51.508;7.534;2022-10-29T06:26:38;15.90;99.90
31311;DHT22;17937;51.508;7.534;2022-10-29T06:29:03;15.90;99.90
31311;DHT22;17937;51.508;7.534;2022-10-29T06:31:29;15.90;99.90
31311;DHT22;17937;51.508;7.534;2022-10-29T06:33:54;15.90;99.90
31311;DHT22;17937;51.508;7.534;2022-10-29T06:36:20;15.90;99.90
31311;DHT22;17937;51.508;7.534;2022-10-29T06:38:46;15.90;99.90
31311;DHT22;17937;51.508;7.534;2022-10-29T06:41:11;15.90;99.90
31311;DHT22;17937;51.508;7.534;2022-10-29T06:43:37;16.00;99.90
31311;DHT22;17937;51.508;7.534;2022-10-29T06:46:03;16.00;99.90
31311;DHT22;17937;51.508;7.534;2022-10-29T06:48:28;16.00;99.90
31311;DHT22;17937;51.508;7.534;2022-10-29T06:50:54;16.00;99.90
31311;DHT22;17937;51.508;7.534;2022-10-29T06:53:19;16.00;99.90
31311;DHT22;17937;51.508;7.534;2022-10-29T06:55:45;16.10;99.90
31311;DHT22;17937;51.508;7.534;2022-10-29T06:58:13;16.10;99.90
31311;DHT22;17937;51.508;7.534;2022-10-29T07:00:40;16.10;99.90
31311;DHT22;17937;51.508;7.534;2022-10-29T07:03:06;16.20;99.90
31311;DHT22;17937;51.508;7.534;2022-10-29T07:05:32;16.20;99.90
31311;DHT22;17937;51.508;7.534;2022-10-29T07:07:59;16.30;99.90
31311;DHT22;17937;51.508;7.534;2022-10-29T07:10:26;16.40;99.90
31311;DHT22;17937;51.508;7.534;2022-10-29T07:12:52;16.30;99.90
31311;DHT22;17937;51.508;7.534;2022-10-29T07:15:17;16.40;99.90
31311;DHT22;17937;51.508;7.534;2022-10-29T07:17:56;16.40;99.90
31311;DHT22;17937;51.508;7.534;2022-10-29T07:20:22;16.40;99.90
31311;DHT22;17937;51.508;7.534;2022-10-29T07:22:48;16.40;99.90
31311;DHT22;17937;51.508;7.534;2022-10-29T07:25:14;16.40;99.90
31311;DHT22;17937;51.508;7.534;2022-10-29T07:27:39;16.40;99.90
31311;DHT22;17937;51.508;7.534;2022-10-29T07:30:05;16.40;99.90
31311;DHT22;17937;51.508;7.534;2022-10-29T07:32:31;16.50;99.90
31311;DHT22;17937;51.508;7.534;2022-10-29T07:34:56;16.50;99.90
31311;DHT22;17937;51.508;7.534;2022-10-29T07:37:22;16.50;99.90
31311;DHT22;17937;51.508;7.534;2022-10-29T07:39:47;16.50;99.90
31311;DHT22;17937;51.508;7.534;2022-10-29T07:42:13;16.50;99.90
31311;DHT22;17937;51.508;7.534;2022-10-29T07:44:39;16.60;99.90
31311;DHT22;17937;51.508;7.534;2022-10-29T07:47:04;16.60;99.90
31311;DHT22;17937;51.508;7.534;2022-10-29T07:49:30;16.60;99.90
31311;DHT22;17937;51.508;7.534;2022-10-29T07:51:55;16.70;99.90
31311;DHT22;17937;51.508;7.534;2022-10-29T07:54:21;16.70;99.90
31311;DHT22;17937;51.508;7.534;2022-10-29T07:56:46;16.70;99.90
31311;DHT22;17937;51.508;7.534;2022-10-29T07:59:12;16.80;99.90
31311;DHT22;17937;51.508;7.534;2022-10-29T08:01:39;16.80;99.90
31311;DHT22;17937;51.508;7.534;2022-10-29T08:04:05;16.90;99.90
31311;DHT22;17937;51.508;7.534;2022-10-29T08:06:30;17.00;99.90
31311;DHT22;17937;51.508;7.534;2022-10-29T08:08:56;17.20;99.90
31311;DHT22;17937;51.508;7.534;2022-10-29T08:11:22;17.40;99.90
31311;DHT22;17937;51.508;7.534;2022-10-29T08:13:48;17.90;99.90
31311;DHT22;17937;51.508;7.534;2022-10-29T08:16:13;18.40;99.90
31311;DHT22;17937;51.508;7.534;2022-10-29T08:18:39;18.80;99.90
31311;DHT22;17937;51.508;7.534;2022-10-29T08:21:05;19.10;99.90
31311;DHT22;17937;51.508;7.534;2022-10-29T08:23:30;19.60;99.90
31311;DHT22;17937;51.508;7.534;2022-10-29T08:25:57;19.80;99.90
31311;DHT22;17937;51.508;7.534;2022-10-29T08:28:22;19.80;99.90
31311;DHT22;17937;51.508;7.534;2022-10-29T08:30:49;19.60;99.90
31311;DHT22;17937;51.508;7.534;2022-10-29T08:33:14;19.40;99.90
31311;DHT22;17937;51.508;7.534;2022-10-29T08:35:40;19.20;99.90
31311;DHT22;17937;51.508;7.534;2022-10-29T08:38:05;19.10;99.90
31311;DHT22;17937;51.508;7.534;2022-10-29T08:45:37;19.20;99.90
31311;DHT22;17937;51.508;7.534;2022-10-29T08:48:35;19.60;99.90
31311;DHT22;17937;51.508;7.534;2022-10-29T08:51:36;20.00;99.90
31311;DHT22;17937;51.508;7.534;2022-10-29T08:54:00;20.10;99.90
31311;DHT22;17937;51.508;7.534;2022-10-29T08:56:28;20.30;99.90
31311;DHT22;17937;51.508;7.534;2022-10-29T08:59:15;20.40;99.90
31311;DHT22;17937;51.508;7.534;2022-10-29T09:01:41;20.70;99.90
31311;DHT22;17937;51.508;7.534;2022-10-29T09:04:22;21.10;99.90
31311;DHT22;17937;51.508;7.534;2022-10-29T09:09:57;21.50;99.90
31311;DHT22;17937;51.508;7.534;2022-10-29T09:13:43;21.70;99.90
31311;DHT22;17937;51.508;7.534;2022-10-29T09:18:38;21.70;99.90
31311;DHT22;17937;51.508;7.534;2022-10-29T09:26:28;23.40;99.90
31311;DHT22;17937;51.508;7.534;2022-10-29T09:31:54;24.10;99.90
31311;DHT22;17937;51.508;7.534;2022-10-29T09:34:29;24.30;99.90
31311;DHT22;17937;51.508;7.534;2022-10-29T09:36:56;24.20;99.90
31311;DHT22;17937;51.508;7.534;2022-10-29T09:39:32;23.80;99.90
31311;DHT22;17937;51.508;7.534;2022-10-29T09:42:01;23.70;99.90
31311;DHT22;17937;51.508;7.534;2022-10-29T09:44:37;23.70;99.90
31311;DHT22;17937;51.508;7.534;2022-10-29T09:47:37;23.80;99.90
31311;DHT22;17937;51.508;7.534;2022-10-29T09:52:35;24.40;99.90
31311;DHT22;17937;51.508;7.534;2022-10-29T09:55:03;24.70;99.90
31311;DHT22;17937;51.508;7.534;2022-10-29T09:57:32;25.10;99.90
31311;DHT22;17937;51.508;7.534;2022-10-29T10:00:05;25.50;99.90
31311;DHT22;17937;51.508;7.534;2022-10-29T10:02:37;25.30;99.90
31311;DHT22;17937;51.508;7.534;2022-10-29T10:05:06;24.90;99.90
31311;DHT22;17937;51.508;7.534;2022-10-29T10:07:36;24.50;99.90
31311;DHT22;17937;51.508;7.534;2022-10-29T10:10:04;24.10;99.90
31311;DHT22;17937;51.508;7.534;2022-10-29T10:15:17;23.80;99.90
31311;DHT22;17937;51.508;7.534;2022-10-29T10:20:35;24.00;99.90
31311;DHT22;17937;51.508;7.534;2022-10-29T10:25:44;24.30;99.90
31311;DHT22;17937;51.508;7.534;2022-10-29T10:28:18;24.30;99.90
31311;DHT22;17937;51.508;7.534;2022-10-29T10:31:02;23.90;99.90
31311;DHT22;17937;51.508;7.534;2022-10-29T10:33:31;23.60;99.90
31311;DHT22;17937;51.508;7.534;2022-10-29T10:36:03;23.20;99.90
31311;DHT22;17937;51.508;7.534;2022-10-29T10:38:40;23.00;99.90
31311;DHT22;17937;51.508;7.534;2022-10-29T10:41:08;22.90;99.90
31311;DHT22;17937;51.508;7.534;2022-10-29T10:43:35;22.80;99.90
31311;DHT22;17937;51.508;7.534;2022-10-29T10:46:05;22.80;99.90
31311;DHT22;17937;51.508;7.534;2022-10-29T10:48:35;22.80;99.90
31311;DHT22;17937;51.508;7.534;2022-10-29T10:51:28;22.90;99.90
31311;DHT22;17937;51.508;7.534;2022-10-29T10:53:54;22.90;99.90
31311;DHT22;17937;51.508;7.534;2022-10-29T10:56:21;23.00;99.90
31311;DHT22;17937;51.508;7.534;2022-10-29T11:03:57;23.30;99.90
31311;DHT22;17937;51.508;7.534;2022-10-29T11:06:32;23.40;99.90
31311;DHT22;17937;51.508;7.534;2022-10-29T11:09:27;23.40;99.90
31311;DHT22;17937;51.508;7.534;2022-10-29T11:12:10;23.40;99.90
31311;DHT22;17937;51.508;7.534;2022-10-29T11:14:53;23.40;99.90
31311;DHT22;17937;51.508;7.534;2022-10-29T11:17:46;23.60;99.90
31311;DHT22;17937;51.508;7.534;2022-10-29T11:20:27;23.70;99.90
31311;DHT22;17937;51.508;7.534;2022-10-29T11:23:00;23.70;99.90
31311;DHT22;17937;51.508;7.534;2022-10-29T11:25:48;23.80;99.90
31311;DHT22;17937;51.508;7.534;2022-10-29T11:28:44;23.80;99.90
31311;DHT22;17937;51.508;7.534;2022-10-29T11:31:25;24.10;99.90
31311;DHT22;17937;51.508;7.534;2022-10-29T11:34:02;24.30;99.90
31311;DHT22;17937;51.508;7.534;2022-10-29T11:36:31;24.30;99.90
31311;DHT22;17937;51.508;7.534;2022-10-29T11:41:59;24.30;99.90
31311;DHT22;17937;51.508;7.534;2022-10-29T11:44:26;24.60;99.90
31311;DHT22;17937;51.508;7.534;2022-10-29T11:52:44;24.70;99.90
31311;DHT22;17937;51.508;7.534;2022-10-29T11:58:15;24.60;99.90
31311;DHT22;17937;51.508;7.534;2022-10-29T12:00:58;24.70;99.90
31311;DHT22;17937;51.508;7.534;2022-10-29T12:03:33;24.70;99.90
31311;DHT22;17937;51.508;7.534;2022-10-29T12:06:13;24.80;99.90
31311;DHT22;17937;51.508;7.534;2022-10-29T12:08:52;24.80;99.90
31311;DHT22;17937;51.508;7.534;2022-10-29T12:11:30;24.90;99.90
31311;DHT22;17937;51.508;7.534;2022-10-29T12:22:36;24.90;99.90
31311;DHT22;17937;51.508;7.534;2022-10-29T12:25:16;24.80;99.90
31311;DHT22;17937;51.508;7.534;2022-10-29T12:27:59;24.70;99.90
31311;DHT22;17937;51.508;7.534;2022-10-29T12:30:31;24.70;99.90
31311;DHT22;17937;51.508;7.534;2022-10-29T12:33:06;24.70;99.90
31311;DHT22;17937;51.508;7.534;2022-10-29T12:36:03;24.70;99.90
31311;DHT22;17937;51.508;7.534;2022-10-29T12:38:38;24.70;99.90
31311;DHT22;17937;51.508;7.534;2022-10-29T12:41:19;24.70;99.90
31311;DHT22;17937;51.508;7.534;2022-10-29T12:43:48;24.80;99.90
31311;DHT22;17937;51.508;7.534;2022-10-29T12:56:23;24.30;99.90
31311;DHT22;17937;51.508;7.534;2022-10-29T12:58:55;24.10;99.90
31311;DHT22;17937;51.508;7.534;2022-10-29T13:09:27;23.90;99.90
31311;DHT22;17937;51.508;7.534;2022-10-29T13:11:59;23.90;99.90
31311;DHT22;17937;51.508;7.534;2022-10-29T13:16:57;23.90;99.90
31311;DHT22;17937;51.508;7.534;2022-10-29T13:22:05;24.00;99.90
31311;DHT22;17937;51.508;7.534;2022-10-29T13:27:49;24.10;99.90
31311;DHT22;17937;51.508;7.534;2022-10-29T13:30:20;24.10;99.90
31311;DHT22;17937;51.508;7.534;2022-10-29T13:32:46;24.20;99.90
31311;DHT22;17937;51.508;7.534;2022-10-29T13:37:47;24.20;99.90
31311;DHT22;17937;51.508;7.534;2022-10-29T13:43:00;24.20;99.90
31311;DHT22;17937;51.508;7.534;2022-10-29T13:45:27;24.10;99.90
31311;DHT22;17937;51.508;7.534;2022-10-29T13:48:00;24.10;99.90
31311;DHT22;17937;51.508;7.534;2022-10-29T13:50:26;24.00;99.90
31311;DHT22;17937;51.508;7.534;2022-10-29T13:52:53;24.00;99.90
31311;DHT22;17937;51.508;7.534;2022-10-29T13:55:19;23.80;99.90
31311;DHT22;17937;51.508;7.534;2022-10-29T13:58:00;23.80;99.90
31311;DHT22;17937;51.508;7.534;2022-10-29T14:00:27;23.80;99.90
31311;DHT22;17937;51.508;7.534;2022-10-29T14:03:03;23.70;99.90
31311;DHT22;17937;51.508;7.534;2022-10-29T14:05:36;23.70;99.90
31311;DHT22;17937;51.508;7.534;2022-10-29T14:13:31;23.70;99.90
31311;DHT22;17937;51.508;7.534;2022-10-29T14:16:00;23.60;99.90
31311;DHT22;17937;51.508;7.534;2022-10-29T14:18:27;23.50;99.90
31311;DHT22;17937;51.508;7.534;2022-10-29T14:20:56;23.40;99.90
31311;DHT22;17937;51.508;7.534;2022-10-29T14:23:23;23.30;99.90
31311;DHT22;17937;51.508;7.534;2022-10-29T14:25:51;23.20;99.90
31311;DHT22;17937;51.508;7.534;2022-10-29T14:28:25;23.10;99.90
31311;DHT22;17937;51.508;7.534;2022-10-29T14:31:26;23.10;99.90
31311;DHT22;17937;51.508;7.534;2022-10-29T14:33:57;23.10;99.90
31311;DHT22;17937;51.508;7.534;2022-10-29T14:36:39;23.10;99.90
31311;DHT22;17937;51.508;7.534;2022-10-29T14:41:50;23.20;99.90
31311;DHT22;17937;51.508;7.534;2022-10-29T14:44:18;23.10;99.90
31311;DHT22;17937;51.508;7.534;2022-10-29T14:47:11;23.10;99.90
31311;DHT22;17937;51.508;7.534;2022-10-29T14:49:42;23.10;99.90
31311;DHT22;17937;51.508;7.534;2022-10-29T14:54:53;23.00;99.90
31311;DHT22;17937;51.508;7.534;2022-10-29T14:57:21;23.00;99.90
31311;DHT22;17937;51.508;7.534;2022-10-29T14:59:55;22.90;99.90
31311;DHT22;17937;51.508;7.534;2022-10-29T15:02:21;22.80;99.90
31311;DHT22;17937;51.508;7.534;2022-10-29T15:04:58;22.70;99.90
31311;DHT22;17937;51.508;7.534;2022-10-29T15:07:34;22.60;99.90
31311;DHT22;17937;51.508;7.534;2022-10-29T15:12:44;22.40;99.90
31311;DHT22;17937;51.508;7.534;2022-10-29T15:15:20;22.40;99.90
31311;DHT22;17937;51.508;7.534;2022-10-29T15:17:59;22.30;99.90
31311;DHT22;17937;51.508;7.534;2022-10-29T15:20:36;22.30;99.90
31311;DHT22;17937;51.508;7.534;2022-10-29T15:23:31;22.20;99.90
31311;DHT22;17937;51.508;7.534;2022-10-29T15:26:15;22.20;99.90
31311;DHT22;17937;51.508;7.534;2022-10-29T15:28:43;22.10;99.90
31311;DHT22;17937;51.508;7.534;2022-10-29T15:31:40;22.10;99.90
31311;DHT22;17937;51.508;7.534;2022-10-29T15:34:08;22.00;99.90
31311;DHT22;17937;51.508;7.534;2022-10-29T15:37:13;22.00;99.90
31311;DHT22;17937;51.508;7.534;2022-10-29T15:42:22;21.80;99.90
31311;DHT22;17937;51.508;7.534;2022-10-29T15:45:21;21.90;99.90
31311;DHT22;17937;51.508;7.534;2022-10-29T15:50:24;21.70;99.90
31311;DHT22;17937;51.508;7.534;2022-10-29T15:52:51;21.70;99.90
31311;DHT22;17937;51.508;7.534;2022-10-29T15:55:24;21.60;99.90
31311;DHT22;17937;51.508;7.534;2022-10-29T15:57:50;21.60;99.90
31311;DHT22;17937;51.508;7.534;2022-10-29T16:00:21;21.60;99.90
31311;DHT22;17937;51.508;7.534;2022-10-29T16:02:48;21.40;99.90
31311;DHT22;17937;51.508;7.534;2022-10-29T16:05:14;21.30;99.90
31311;DHT22;17937;51.508;7.534;2022-10-29T16:07:41;21.20;99.90
31311;DHT22;17937;51.508;7.534;2022-10-29T16:10:16;21.20;99.90
31311;DHT22;17937;51.508;7.534;2022-10-29T16:12:42;21.20;99.90
31311;DHT22;17937;51.508;7.534;2022-10-29T16:15:12;21.10;99.90
31311;DHT22;17937;51.508;7.534;2022-10-29T16:17:38;21.00;99.90
31311;DHT22;17937;51.508;7.534;2022-10-29T16:20:04;21.00;99.90
31311;DHT22;17937;51.508;7.534;2022-10-29T16:22:30;21.00;99.90
31311;DHT22;17937;51.508;7.534;2022-10-29T16:24:55;21.00;99.90
31311;DHT22;17937;51.508;7.534;2022-10-29T16:27:21;21.00;99.90
31311;DHT22;17937;51.508;7.534;2022-10-29T16:29:46;21.00;99.90
31311;DHT22;17937;51.508;7.534;2022-10-29T16:32:15;21.00;99.90
31311;DHT22;17937;51.508;7.534;2022-10-29T16:34:41;21.00;99.90
31311;DHT22;17937;51.508;7.534;2022-10-29T16:37:15;20.90;99.90
31311;DHT22;17937;51.508;7.534;2022-10-29T16:39:42;21.00;99.90
31311;DHT22;17937;51.508;7.534;2022-10-29T16:42:31;20.90;99.90
31311;DHT22;17937;51.508;7.534;2022-10-29T16:44:57;20.90;99.90
31311;DHT22;17937;51.508;7.534;2022-10-29T16:47:23;20.90;99.90
31311;DHT22;17937;51.508;7.534;2022-10-29T16:49:48;20.80;99.90
31311;DHT22;17937;51.508;7.534;2022-10-29T16:52:14;20.70;99.90
31311;DHT22;17937;51.508;7.534;2022-10-29T16:54:39;20.60;99.90
31311;DHT22;17937;51.508;7.534;2022-10-29T16:57:05;20.60;99.90
31311;DHT22;17937;51.508;7.534;2022-10-29T16:59:31;20.70;99.90
31311;DHT22;17937;51.508;7.534;2022-10-29T17:01:56;20.70;99.90
31311;DHT22;17937;51.508;7.534;2022-10-29T17:04:22;20.70;99.90
31311;DHT22;17937;51.508;7.534;2022-10-29T17:06:48;20.70;99.90
31311;DHT22;17937;51.508;7.534;2022-10-29T17:09:13;20.60;99.90
31311;DHT22;17937;51.508;7.534;2022-10-29T17:11:39;20.50;99.90
31311;DHT22;17937;51.508;7.534;2022-10-29T17:14:04;20.40;99.90
31311;DHT22;17937;51.508;7.534;2022-10-29T17:16:30;20.30;99.90
31311;DHT22;17937;51.508;7.534;2022-10-29T17:18:56;20.20;99.90
31311;DHT22;17937;51.508;7.534;2022-10-29T17:21:22;20.20;99.90
31311;DHT22;17937;51.508;7.534;2022-10-29T17:23:48;20.20;99.90
31311;DHT22;17937;51.508;7.534;2022-10-29T17:26:14;20.30;99.90
31311;DHT22;17937;51.508;7.534;2022-10-29T17:28:39;20.40;99.90
31311;DHT22;17937;51.508;7.534;2022-10-29T17:31:06;20.40;99.90
31311;DHT22;17937;51.508;7.534;2022-10-29T17:33:32;20.50;99.90
31311;DHT22;17937;51.508;7.534;2022-10-29T17:36:14;20.60;99.90
31311;DHT22;17937;51.508;7.534;2022-10-29T17:38:40;20.60;99.90
31311;DHT22;17937;51.508;7.534;2022-10-29T17:41:06;20.50;99.90
31311;DHT22;17937;51.508;7.534;2022-10-29T17:43:32;20.50;99.90
31311;DHT22;17937;51.508;7.534;2022-10-29T17:45:57;20.50;99.90
31311;DHT22;17937;51.508;7.534;2022-10-29T17:48:23;20.50;99.90
31311;DHT22;17937;51.508;7.534;2022-10-29T17:50:53;20.50;99.90
31311;DHT22;17937;51.508;7.534;2022-10-29T17:53:19;20.50;99.90
31311;DHT22;17937;51.508;7.534;2022-10-29T17:55:45;20.40;99.90
31311;DHT22;17937;51.508;7.534;2022-10-29T17:58:10;20.30;99.90
31311;DHT22;17937;51.508;7.534;2022-10-29T18:00:36;20.30;99.90
31311;DHT22;17937;51.508;7.534;2022-10-29T18:03:01;20.20;99.90